sensor_id;sensor_type;location;lat;lon;timestamp;pressure;altitude;pressure_sealevel;temperature;humidity
80335;BME280;69653;52.674;13.574;2023-05-10T00:00:22;100476.53;;;9.21;60.57
80335;BME280;69653;52.674;13.574;2023-05-10T00:02:48;100480.66;;;9.19;60.43
80335;BME280;69653;52.674;13.574;2023-05-10T00:05:14;100472.59;;;9.09;61.31
80335;BME280;69653;52.674;13.574;2023-05-10T00:07:39;100463.97;;;9.02;61.48
80335;BME280;69653;52.674;13.574;2023-05-10T00:10:06;100482.53;;;9.00;61.83
80335;BME280;69653;52.674;13.574;2023-05-10T00:12:32;100475.00;;;8.92;61.91
80335;BME280;69653;52.674;13.574;2023-05-10T00:14:57;100472.78;;;8.94;61.79
80335;BME280;69653;52.674;13.574;2023-05-10T00:17:22;100471.75;;;8.90;61.64
80335;BME280;69653;52.674;13.574;2023-05-10T00:19:47;100471.25;;;8.88;61.84
80335;BME280;69653;52.674;13.574;2023-05-10T00:22:13;100460.97;;;8.80;62.45
80335;BME280;69653;52.674;13.574;2023-05-10T00:24:38;100471.88;;;8.80;62.74
80335;BME280;69653;52.674;13.574;2023-05-10T00:27:04;100460.50;;;8.72;62.33
80335;BME280;69653;52.674;13.574;2023-05-10T00:29:29;100458.31;;;8.74;62.19
80335;BME280;69653;52.674;13.574;2023-05-10T00:31:54;100459.19;;;8.70;62.75
80335;BME280;69653;52.674;13.574;2023-05-10T00:34:20;100461.91;;;8.70;63.46
80335;BME280;69653;52.674;13.574;2023-05-10T00:36:45;100457.84;;;8.67;63.11
80335;BME280;69653;52.674;13.574;2023-05-10T00:39:11;100448.69;;;8.58;63.59
80335;BME280;69653;52.674;13.574;2023-05-10T00:41:37;100441.91;;;8.56;63.09
80335;BME280;69653;52.674;13.574;2023-05-10T00:44:02;100453.59;;;8.56;63.92
80335;BME280;69653;52.674;13.574;2023-05-10T00:46:28;100439.75;;;8.53;63.40
80335;BME280;69653;52.674;13.574;2023-05-10T00:48:53;100433.59;;;8.42;63.79
80335;BME280;69653;52.674;13.574;2023-05-10T00:51:19;100446.38;;;8.47;63.81
80335;BME280;69653;52.674;13.574;2023-05-10T00:53:45;100427.09;;;8.38;64.61
80335;BME280;69653;52.674;13.574;2023-05-10T00:56:11;100433.59;;;8.42;64.24
80335;BME280;69653;52.674;13.574;2023-05-10T00:58:37;100430.13;;;8.37;64.34
80335;BME280;69653;52.674;13.574;2023-05-10T01:01:04;100429.91;;;8.33;64.83
80335;BME280;69653;52.674;13.574;2023-05-10T01:03:31;100426.38;;;8.27;64.90
80335;BME280;69653;52.674;13.574;2023-05-10T01:05:57;100426.63;;;8.31;64.72
80335;BME280;69653;52.674;13.574;2023-05-10T01:08:22;100420.09;;;8.32;64.75
80335;BME280;69653;52.674;13.574;2023-05-10T01:10:48;100416.88;;;8.25;65.36
80335;BME280;69653;52.674;13.574;2023-05-10T01:13:18;100418.28;;;8.22;65.62
80335;BME280;69653;52.674;13.574;2023-05-10T01:15:48;100410.97;;;8.18;65.20
80335;BME280;69653;52.674;13.574;2023-05-10T01:18:15;100412.00;;;8.22;65.01
80335;BME280;69653;52.674;13.574;2023-05-10T01:20:46;100403.53;;;8.23;65.06
80335;BME280;69653;52.674;13.574;2023-05-10T01:23:37;100409.53;;;8.25;65.61
80335;BME280;69653;52.674;13.574;2023-05-10T01:34:24;100404.13;;;8.20;65.35
80335;BME280;69653;52.674;13.574;2023-05-10T01:37:13;100393.81;;;8.17;65.11
80335;BME280;69653;52.674;13.574;2023-05-10T01:39:46;100391.34;;;8.16;65.48
80335;BME280;69653;52.674;13.574;2023-05-10T01:42:17;100382.94;;;8.12;65.17
80335;BME280;69653;52.674;13.574;2023-05-10T01:45:01;100391.91;;;8.18;65.29
80335;BME280;69653;52.674;13.574;2023-05-10T01:47:38;100378.84;;;8.15;65.24
80335;BME280;69653;52.674;13.574;2023-05-10T01:50:09;100384.22;;;8.20;64.82
80335;BME280;69653;52.674;13.574;2023-05-10T01:52:41;100381.09;;;8.08;65.11
80335;BME280;69653;52.674;13.574;2023-05-10T01:55:13;100387.03;;;8.15;65.48
80335;BME280;69653;52.674;13.574;2023-05-10T01:57:40;100387.13;;;8.05;65.64
80335;BME280;69653;52.674;13.574;2023-05-10T02:00:08;100387.66;;;8.07;65.54
80335;BME280;69653;52.674;13.574;2023-05-10T02:02:37;100390.97;;;8.04;65.53
80335;BME280;69653;52.674;13.574;2023-05-10T02:05:05;100381.75;;;8.00;66.12
80335;BME280;69653;52.674;13.574;2023-05-10T02:07:33;100386.41;;;7.94;65.84
80335;BME280;69653;52.674;13.574;2023-05-10T02:10:00;100378.81;;;7.91;65.93
80335;BME280;69653;52.674;13.574;2023-05-10T02:12:27;100383.09;;;7.97;65.52
80335;BME280;69653;52.674;13.574;2023-05-10T02:14:54;100373.34;;;7.96;65.88
80335;BME280;69653;52.674;13.574;2023-05-10T02:17:20;100366.59;;;7.89;65.64
80335;BME280;69653;52.674;13.574;2023-05-10T02:19:47;100381.44;;;8.01;65.24
80335;BME280;69653;52.674;13.574;2023-05-10T02:22:13;100380.09;;;7.99;65.33
80335;BME280;69653;52.674;13.574;2023-05-10T02:24:40;100376.34;;;7.95;65.43
80335;BME280;69653;52.674;13.574;2023-05-10T02:27:06;100376.06;;;7.96;65.74
80335;BME280;69653;52.674;13.574;2023-05-10T02:29:33;100378.47;;;7.98;65.45
80335;BME280;69653;52.674;13.574;2023-05-10T02:31:59;100379.25;;;8.03;65.04
80335;BME280;69653;52.674;13.574;2023-05-10T02:34:26;100370.53;;;8.01;65.26
80335;BME280;69653;52.674;13.574;2023-05-10T02:36:53;100372.69;;;8.04;64.92
80335;BME280;69653;52.674;13.574;2023-05-10T02:39:19;100381.63;;;8.10;64.23
80335;BME280;69653;52.674;13.574;2023-05-10T02:41:46;100369.69;;;8.06;64.59
80335;BME280;69653;52.674;13.574;2023-05-10T02:44:14;100366.19;;;8.00;64.73
80335;BME280;69653;52.674;13.574;2023-05-10T02:46:40;100367.25;;;8.04;64.60
80335;BME280;69653;52.674;13.574;2023-05-10T02:49:05;100364.59;;;7.99;64.73
80335;BME280;69653;52.674;13.574;2023-05-10T02:51:34;100364.88;;;7.98;64.87
80335;BME280;69653;52.674;13.574;2023-05-10T02:54:10;100364.94;;;7.93;65.24
80335;BME280;69653;52.674;13.574;2023-05-10T02:56:40;100367.94;;;7.91;64.99
80335;BME280;69653;52.674;13.574;2023-05-10T02:59:06;100364.13;;;7.92;64.91
80335;BME280;69653;52.674;13.574;2023-05-10T03:01:31;100358.13;;;7.90;64.75
80335;BME280;69653;52.674;13.574;2023-05-10T03:03:57;100361.91;;;7.94;64.79
80335;BME280;69653;52.674;13.574;2023-05-10T03:06:22;100358.13;;;7.90;64.93
80335;BME280;69653;52.674;13.574;2023-05-10T03:08:48;100357.97;;;7.82;64.86
80335;BME280;69653;52.674;13.574;2023-05-10T03:13:52;100355.78;;;7.78;65.25
80335;BME280;69653;52.674;13.574;2023-05-10T03:16:25;100367.25;;;7.75;65.59
80335;BME280;69653;52.674;13.574;2023-05-10T03:19:02;100365.13;;;7.72;65.63
80335;BME280;69653;52.674;13.574;2023-05-10T03:21:31;100360.50;;;7.73;65.84
80335;BME280;69653;52.674;13.574;2023-05-10T03:24:05;100353.13;;;7.73;65.54
80335;BME280;69653;52.674;13.574;2023-05-10T03:26:32;100361.53;;;7.77;65.41
80335;BME280;69653;52.674;13.574;2023-05-10T03:28:58;100367.00;;;7.77;65.30
80335;BME280;69653;52.674;13.574;2023-05-10T03:31:24;100356.09;;;7.77;65.33
80335;BME280;69653;52.674;13.574;2023-05-10T03:33:51;100358.81;;;7.77;65.33
80335;BME280;69653;52.674;13.574;2023-05-10T03:36:17;100356.56;;;7.84;65.38
80335;BME280;69653;52.674;13.574;2023-05-10T03:38:42;100362.00;;;7.84;64.85
80335;BME280;69653;52.674;13.574;2023-05-10T03:41:08;100337.09;;;7.72;65.43
80335;BME280;69653;52.674;13.574;2023-05-10T03:43:33;100349.84;;;7.76;64.90
80335;BME280;69653;52.674;13.574;2023-05-10T03:46:01;100358.94;;;7.91;64.81
80335;BME280;69653;52.674;13.574;2023-05-10T03:48:27;100354.59;;;7.90;64.43
80335;BME280;69653;52.674;13.574;2023-05-10T03:50:52;100352.75;;;7.85;64.70
80335;BME280;69653;52.674;13.574;2023-05-10T03:53:17;100348.97;;;7.81;65.46
80335;BME280;69653;52.674;13.574;2023-05-10T03:55:42;100353.88;;;7.79;65.48
80335;BME280;69653;52.674;13.574;2023-05-10T03:58:10;100346.50;;;7.85;64.79
80335;BME280;69653;52.674;13.574;2023-05-10T04:00:36;100351.59;;;7.91;64.67
80335;BME280;69653;52.674;13.574;2023-05-10T04:03:02;100346.72;;;7.88;64.77
80335;BME280;69653;52.674;13.574;2023-05-10T04:05:27;100355.28;;;8.00;64.22
80335;BME280;69653;52.674;13.574;2023-05-10T04:07:52;100351.03;;;8.18;63.68
80335;BME280;69653;52.674;13.574;2023-05-10T04:10:18;100347.59;;;8.36;62.98
80335;BME280;69653;52.674;13.574;2023-05-10T04:12:43;100353.66;;;8.52;62.52
80335;BME280;69653;52.674;13.574;2023-05-10T04:15:09;100346.97;;;8.63;62.17
80335;BME280;69653;52.674;13.574;2023-05-10T04:17:34;100344.91;;;8.73;61.18
80335;BME280;69653;52.674;13.574;2023-05-10T04:19:59;100347.66;;;8.92;61.58
80335;BME280;69653;52.674;13.574;2023-05-10T04:22:25;100339.53;;;9.06;60.54
80335;BME280;69653;52.674;13.574;2023-05-10T04:24:50;100333.47;;;9.09;59.91
80335;BME280;69653;52.674;13.574;2023-05-10T04:27:15;100342.78;;;9.27;59.81
80335;BME280;69653;52.674;13.574;2023-05-10T04:29:41;100344.53;;;9.36;59.33
80335;BME280;69653;52.674;13.574;2023-05-10T04:32:06;100330.41;;;9.48;58.99
80335;BME280;69653;52.674;13.574;2023-05-10T04:34:32;100342.09;;;9.67;58.59
80335;BME280;69653;52.674;13.574;2023-05-10T04:36:59;100332.81;;;9.82;57.96
80335;BME280;69653;52.674;13.574;2023-05-10T04:39:24;100332.34;;;9.93;57.19
80335;BME280;69653;52.674;13.574;2023-05-10T04:41:49;100341.97;;;10.04;56.63
80335;BME280;69653;52.674;13.574;2023-05-10T04:44:15;100332.28;;;10.26;56.48
80335;BME280;69653;52.674;13.574;2023-05-10T04:46:40;100344.50;;;10.28;56.56
80335;BME280;69653;52.674;13.574;2023-05-10T04:49:05;100334.63;;;10.46;55.79
80335;BME280;69653;52.674;13.574;2023-05-10T04:51:31;100319.38;;;10.53;55.39
80335;BME280;69653;52.674;13.574;2023-05-10T04:53:56;100333.75;;;10.73;54.66
80335;BME280;69653;52.674;13.574;2023-05-10T04:56:22;100349.09;;;10.96;54.29
80335;BME280;69653;52.674;13.574;2023-05-10T04:58:47;100336.22;;;10.96;53.64
80335;BME280;69653;52.674;13.574;2023-05-10T05:01:12;100340.63;;;11.19;53.54
80335;BME280;69653;52.674;13.574;2023-05-10T05:03:38;100349.06;;;11.32;52.83
80335;BME280;69653;52.674;13.574;2023-05-10T05:06:03;100339.91;;;11.36;53.19
80335;BME280;69653;52.674;13.574;2023-05-10T05:08:29;100337.91;;;11.50;52.72
80335;BME280;69653;52.674;13.574;2023-05-10T05:10:54;100343.53;;;11.67;51.99
80335;BME280;69653;52.674;13.574;2023-05-10T05:13:19;100338.31;;;11.80;51.75
80335;BME280;69653;52.674;13.574;2023-05-10T05:15:45;100341.13;;;11.97;51.46
80335;BME280;69653;52.674;13.574;2023-05-10T05:18:10;100338.81;;;12.12;51.07
80335;BME280;69653;52.674;13.574;2023-05-10T05:20:35;100339.50;;;12.27;50.98
80335;BME280;69653;52.674;13.574;2023-05-10T05:23:01;100337.56;;;12.36;50.58
80335;BME280;69653;52.674;13.574;2023-05-10T05:25:26;100338.78;;;12.60;49.97
80335;BME280;69653;52.674;13.574;2023-05-10T05:27:52;100333.63;;;12.68;49.49
80335;BME280;69653;52.674;13.574;2023-05-10T05:30:17;100326.41;;;12.89;48.69
80335;BME280;69653;52.674;13.574;2023-05-10T05:32:42;100327.91;;;13.12;48.81
80335;BME280;69653;52.674;13.574;2023-05-10T05:35:08;100330.97;;;13.28;48.05
80335;BME280;69653;52.674;13.574;2023-05-10T05:37:33;100329.84;;;13.11;48.40
80335;BME280;69653;52.674;13.574;2023-05-10T05:39:58;100330.47;;;13.34;47.53
80335;BME280;69653;52.674;13.574;2023-05-10T05:42:26;100336.09;;;13.64;46.91
80335;BME280;69653;52.674;13.574;2023-05-10T05:44:51;100331.84;;;13.83;46.86
80335;BME280;69653;52.674;13.574;2023-05-10T05:47:16;100332.72;;;14.13;46.23
80335;BME280;69653;52.674;13.574;2023-05-10T05:49:42;100344.00;;;14.20;46.25
80335;BME280;69653;52.674;13.574;2023-05-10T05:52:10;100336.19;;;14.39;45.62
80335;BME280;69653;52.674;13.574;2023-05-10T05:54:35;100335.53;;;14.42;45.26
80335;BME280;69653;52.674;13.574;2023-05-10T05:57:01;100333.44;;;14.69;44.74
80335;BME280;69653;52.674;13.574;2023-05-10T05:59:27;100326.94;;;14.73;44.23
80335;BME280;69653;52.674;13.574;2023-05-10T06:01:52;100325.91;;;14.78;43.73
80335;BME280;69653;52.674;13.574;2023-05-10T06:04:18;100323.16;;;14.78;43.99
80335;BME280;69653;52.674;13.574;2023-05-10T06:06:43;100319.75;;;14.81;43.96
80335;BME280;69653;52.674;13.574;2023-05-10T06:09:09;100339.69;;;14.78;44.28
80335;BME280;69653;52.674;13.574;2023-05-10T06:11:34;100325.59;;;14.79;43.67
80335;BME280;69653;52.674;13.574;2023-05-10T06:14:01;100329.63;;;15.23;43.62
80335;BME280;69653;52.674;13.574;2023-05-10T06:16:27;100318.09;;;15.09;42.71
80335;BME280;69653;52.674;13.574;2023-05-10T06:18:52;100321.28;;;15.11;43.27
80335;BME280;69653;52.674;13.574;2023-05-10T06:21:17;100325.41;;;15.26;43.16
80335;BME280;69653;52.674;13.574;2023-05-10T06:23:43;100328.09;;;15.67;42.90
80335;BME280;69653;52.674;13.574;2023-05-10T06:26:09;100334.53;;;15.71;41.97
80335;BME280;69653;52.674;13.574;2023-05-10T06:28:34;100327.44;;;15.82;41.76
80335;BME280;69653;52.674;13.574;2023-05-10T06:31:00;100336.13;;;16.05;41.80
80335;BME280;69653;52.674;13.574;2023-05-10T06:33:25;100331.56;;;16.33;40.95
80335;BME280;69653;52.674;13.574;2023-05-10T06:35:51;100329.25;;;16.35;41.39
80335;BME280;69653;52.674;13.574;2023-05-10T06:38:16;100332.16;;;16.63;40.75
80335;BME280;69653;52.674;13.574;2023-05-10T06:40:42;100327.88;;;16.17;40.86
80335;BME280;69653;52.674;13.574;2023-05-10T06:43:07;100318.22;;;16.11;40.85
80335;BME280;69653;52.674;13.574;2023-05-10T06:45:33;100327.75;;;16.14;40.68
80335;BME280;69653;52.674;13.574;2023-05-10T06:47:58;100327.84;;;16.41;41.19
80335;BME280;69653;52.674;13.574;2023-05-10T06:50:23;100334.66;;;16.32;40.38
80335;BME280;69653;52.674;13.574;2023-05-10T06:52:48;100331.31;;;16.38;41.02
80335;BME280;69653;52.674;13.574;2023-05-10T06:55:14;100332.25;;;16.55;40.87
80335;BME280;69653;52.674;13.574;2023-05-10T06:57:39;100341.91;;;16.36;40.47
80335;BME280;69653;52.674;13.574;2023-05-10T07:00:05;100327.69;;;16.59;40.72
80335;BME280;69653;52.674;13.574;2023-05-10T07:02:30;100323.91;;;17.03;40.30
80335;BME280;69653;52.674;13.574;2023-05-10T07:04:56;100327.09;;;17.17;39.39
80335;BME280;69653;52.674;13.574;2023-05-10T07:07:21;100331.59;;;17.10;39.88
80335;BME280;69653;52.674;13.574;2023-05-10T07:09:46;100314.31;;;17.13;39.11
80335;BME280;69653;52.674;13.574;2023-05-10T07:12:12;100311.19;;;17.26;39.72
80335;BME280;69653;52.674;13.574;2023-05-10T07:14:37;100315.66;;;17.59;39.56
80335;BME280;69653;52.674;13.574;2023-05-10T07:17:03;100313.09;;;17.38;39.15
80335;BME280;69653;52.674;13.574;2023-05-10T07:19:28;100314.75;;;17.82;38.83
80335;BME280;69653;52.674;13.574;2023-05-10T07:21:54;100327.97;;;17.61;38.55
80335;BME280;69653;52.674;13.574;2023-05-10T07:24:20;100326.38;;;17.60;38.86
80335;BME280;69653;52.674;13.574;2023-05-10T07:26:45;100305.66;;;17.98;38.63
80335;BME280;69653;52.674;13.574;2023-05-10T07:29:11;100321.56;;;18.16;37.71
80335;BME280;69653;52.674;13.574;2023-05-10T07:31:36;100311.25;;;18.48;37.50
80335;BME280;69653;52.674;13.574;2023-05-10T07:34:02;100315.31;;;18.85;37.09
80335;BME280;69653;52.674;13.574;2023-05-10T07:36:27;100321.19;;;18.33;37.07
80335;BME280;69653;52.674;13.574;2023-05-10T07:38:53;100301.47;;;18.19;38.10
80335;BME280;69653;52.674;13.574;2023-05-10T07:41:18;100317.72;;;18.52;37.24
80335;BME280;69653;52.674;13.574;2023-05-10T07:43:43;100296.16;;;18.46;36.93
80335;BME280;69653;52.674;13.574;2023-05-10T07:46:09;100322.63;;;18.94;36.50
80335;BME280;69653;52.674;13.574;2023-05-10T07:48:36;100308.28;;;18.72;36.11
80335;BME280;69653;52.674;13.574;2023-05-10T07:51:02;100312.72;;;18.77;36.04
80335;BME280;69653;52.674;13.574;2023-05-10T07:53:27;100310.91;;;19.38;35.68
80335;BME280;69653;52.674;13.574;2023-05-10T07:55:54;100318.75;;;19.17;35.27
80335;BME280;69653;52.674;13.574;2023-05-10T07:58:22;100302.06;;;19.33;34.99
80335;BME280;69653;52.674;13.574;2023-05-10T08:00:47;100295.31;;;19.50;34.79
80335;BME280;69653;52.674;13.574;2023-05-10T08:03:13;100305.41;;;20.03;34.14
80335;BME280;69653;52.674;13.574;2023-05-10T08:05:39;100312.19;;;19.83;34.41
80335;BME280;69653;52.674;13.574;2023-05-10T08:08:04;100317.53;;;19.95;33.34
80335;BME280;69653;52.674;13.574;2023-05-10T08:10:29;100297.19;;;19.65;33.90
80335;BME280;69653;52.674;13.574;2023-05-10T08:12:55;100307.03;;;19.24;34.92
80335;BME280;69653;52.674;13.574;2023-05-10T08:15:20;100299.81;;;19.58;34.82
80335;BME280;69653;52.674;13.574;2023-05-10T08:17:45;100306.03;;;19.93;33.73
80335;BME280;69653;52.674;13.574;2023-05-10T08:20:11;100306.91;;;20.43;33.55
80335;BME280;69653;52.674;13.574;2023-05-10T08:22:37;100302.63;;;20.75;32.57
80335;BME280;69653;52.674;13.574;2023-05-10T08:25:03;100312.53;;;21.02;32.94
80335;BME280;69653;52.674;13.574;2023-05-10T08:27:28;100295.94;;;21.39;31.86
80335;BME280;69653;52.674;13.574;2023-05-10T08:29:54;100319.59;;;21.59;31.41
80335;BME280;69653;52.674;13.574;2023-05-10T08:32:19;100299.91;;;21.08;32.91
80335;BME280;69653;52.674;13.574;2023-05-10T08:34:44;100288.66;;;21.27;32.34
80335;BME280;69653;52.674;13.574;2023-05-10T08:37:10;100301.38;;;21.28;32.03
80335;BME280;69653;52.674;13.574;2023-05-10T08:39:38;100300.16;;;21.63;32.31
80335;BME280;69653;52.674;13.574;2023-05-10T08:42:04;100294.13;;;21.20;32.15
80335;BME280;69653;52.674;13.574;2023-05-10T08:44:35;100307.31;;;21.27;32.03
80335;BME280;69653;52.674;13.574;2023-05-10T08:47:06;100302.59;;;21.01;32.34
80335;BME280;69653;52.674;13.574;2023-05-10T08:49:32;100298.72;;;21.39;32.32
80335;BME280;69653;52.674;13.574;2023-05-10T08:51:59;100304.13;;;21.58;31.99
80335;BME280;69653;52.674;13.574;2023-05-10T08:54:26;100294.56;;;21.59;31.27
80335;BME280;69653;52.674;13.574;2023-05-10T08:56:52;100297.59;;;21.81;31.39
80335;BME280;69653;52.674;13.574;2023-05-10T08:59:18;100304.00;;;21.85;30.66
80335;BME280;69653;52.674;13.574;2023-05-10T09:01:45;100294.34;;;21.75;30.83
80335;BME280;69653;52.674;13.574;2023-05-10T09:04:12;100290.03;;;21.44;30.83
80335;BME280;69653;52.674;13.574;2023-05-10T09:06:38;100293.16;;;21.76;31.77
80335;BME280;69653;52.674;13.574;2023-05-10T09:09:03;100300.34;;;21.77;31.28
80335;BME280;69653;52.674;13.574;2023-05-10T09:11:28;100283.47;;;21.63;32.18
80335;BME280;69653;52.674;13.574;2023-05-10T09:13:55;100299.03;;;22.04;30.21
80335;BME280;69653;52.674;13.574;2023-05-10T09:16:21;100289.50;;;22.05;30.28
80335;BME280;69653;52.674;13.574;2023-05-10T09:18:46;100294.69;;;22.58;30.49
80335;BME280;69653;52.674;13.574;2023-05-10T09:21:12;100297.31;;;22.33;30.14
80335;BME280;69653;52.674;13.574;2023-05-10T09:23:42;100297.03;;;22.52;29.77
80335;BME280;69653;52.674;13.574;2023-05-10T09:26:08;100304.19;;;22.50;29.46
80335;BME280;69653;52.674;13.574;2023-05-10T09:28:34;100312.75;;;22.27;29.23
80335;BME280;69653;52.674;13.574;2023-05-10T09:31:15;100306.63;;;22.55;29.10
80335;BME280;69653;52.674;13.574;2023-05-10T09:33:44;100295.97;;;22.67;30.14
80335;BME280;69653;52.674;13.574;2023-05-10T09:36:11;100293.84;;;23.23;29.45
80335;BME280;69653;52.674;13.574;2023-05-10T09:41:17;100303.53;;;23.43;29.01
80335;BME280;69653;52.674;13.574;2023-05-10T09:43:43;100308.53;;;22.44;29.15
80335;BME280;69653;52.674;13.574;2023-05-10T09:46:09;100313.13;;;22.22;30.16
80335;BME280;69653;52.674;13.574;2023-05-10T09:48:42;100300.38;;;21.81;30.50
80335;BME280;69653;52.674;13.574;2023-05-10T09:51:07;100298.19;;;22.00;30.69
80335;BME280;69653;52.674;13.574;2023-05-10T09:53:32;100291.59;;;21.78;30.02
80335;BME280;69653;52.674;13.574;2023-05-10T09:55:58;100300.69;;;22.12;30.57
80335;BME280;69653;52.674;13.574;2023-05-10T09:58:23;100301.19;;;22.73;29.96
80335;BME280;69653;52.674;13.574;2023-05-10T10:00:48;100303.78;;;23.13;28.63
80335;BME280;69653;52.674;13.574;2023-05-10T10:03:18;100309.63;;;22.87;29.65
80335;BME280;69653;52.674;13.574;2023-05-10T10:05:44;100312.94;;;23.06;29.07
80335;BME280;69653;52.674;13.574;2023-05-10T10:08:12;100305.41;;;23.14;29.00
80335;BME280;69653;52.674;13.574;2023-05-10T10:10:38;100304.97;;;23.08;29.75
80335;BME280;69653;52.674;13.574;2023-05-10T10:13:07;100299.06;;;23.28;29.19
80335;BME280;69653;52.674;13.574;2023-05-10T10:15:34;100304.84;;;23.77;29.24
80335;BME280;69653;52.674;13.574;2023-05-10T10:18:00;100301.56;;;23.47;28.44
80335;BME280;69653;52.674;13.574;2023-05-10T10:20:26;100302.41;;;23.58;28.21
80335;BME280;69653;52.674;13.574;2023-05-10T10:22:52;100299.25;;;23.66;28.51
80335;BME280;69653;52.674;13.574;2023-05-10T10:25:18;100297.63;;;23.62;28.42
80335;BME280;69653;52.674;13.574;2023-05-10T10:36:09;100294.50;;;23.85;28.63
80335;BME280;69653;52.674;13.574;2023-05-10T10:41:29;100291.72;;;23.92;28.42
80335;BME280;69653;52.674;13.574;2023-05-10T11:05:41;100288.09;;;23.91;27.32
80335;BME280;69653;52.674;13.574;2023-05-10T11:11:16;100298.88;;;23.89;27.61
80335;BME280;69653;52.674;13.574;2023-05-10T11:19:02;100288.84;;;23.60;29.01
80335;BME280;69653;52.674;13.574;2023-05-10T11:21:31;100278.56;;;24.13;28.34
80335;BME280;69653;52.674;13.574;2023-05-10T11:23:58;100281.78;;;24.30;27.24
80335;BME280;69653;52.674;13.574;2023-05-10T11:26:25;100286.56;;;24.29;27.58
80335;BME280;69653;52.674;13.574;2023-05-10T11:28:53;100279.38;;;24.35;27.84
80335;BME280;69653;52.674;13.574;2023-05-10T11:31:22;100282.56;;;24.48;27.47
80335;BME280;69653;52.674;13.574;2023-05-10T11:33:52;100288.84;;;25.01;26.86
80335;BME280;69653;52.674;13.574;2023-05-10T11:36:20;100290.47;;;24.92;26.65
80335;BME280;69653;52.674;13.574;2023-05-10T11:38:46;100287.25;;;25.07;25.79
80335;BME280;69653;52.674;13.574;2023-05-10T11:41:12;100296.47;;;25.01;26.18
80335;BME280;69653;52.674;13.574;2023-05-10T11:43:41;100292.09;;;24.89;25.24
80335;BME280;69653;52.674;13.574;2023-05-10T11:46:10;100298.91;;;24.74;25.96
80335;BME280;69653;52.674;13.574;2023-05-10T11:48:38;100282.91;;;24.64;26.33
80335;BME280;69653;52.674;13.574;2023-05-10T11:51:03;100287.75;;;24.60;26.36
80335;BME280;69653;52.674;13.574;2023-05-10T11:53:32;100289.34;;;24.36;25.75
80335;BME280;69653;52.674;13.574;2023-05-10T11:56:09;100284.94;;;24.49;25.62
80335;BME280;69653;52.674;13.574;2023-05-10T11:58:35;100298.13;;;24.24;26.63
80335;BME280;69653;52.674;13.574;2023-05-10T12:01:02;100286.56;;;24.26;26.44
80335;BME280;69653;52.674;13.574;2023-05-10T12:03:29;100287.75;;;24.39;26.32
80335;BME280;69653;52.674;13.574;2023-05-10T12:05:55;100298.47;;;24.72;26.60
80335;BME280;69653;52.674;13.574;2023-05-10T12:08:23;100300.03;;;25.12;25.67
80335;BME280;69653;52.674;13.574;2023-05-10T12:10:49;100305.31;;;24.68;26.14
80335;BME280;69653;52.674;13.574;2023-05-10T12:13:15;100298.47;;;23.91;26.04
80335;BME280;69653;52.674;13.574;2023-05-10T12:15:41;100310.91;;;24.22;26.02
80335;BME280;69653;52.674;13.574;2023-05-10T12:18:11;100296.53;;;24.55;24.66
80335;BME280;69653;52.674;13.574;2023-05-10T12:20:37;100302.88;;;24.77;24.58
80335;BME280;69653;52.674;13.574;2023-05-10T12:23:03;100292.44;;;24.98;24.98
80335;BME280;69653;52.674;13.574;2023-05-10T12:25:32;100302.47;;;24.78;25.51
80335;BME280;69653;52.674;13.574;2023-05-10T12:27:59;100306.50;;;24.63;25.76
80335;BME280;69653;52.674;13.574;2023-05-10T12:30:29;100289.31;;;24.54;26.58
80335;BME280;69653;52.674;13.574;2023-05-10T12:33:12;100297.72;;;24.57;26.75
80335;BME280;69653;52.674;13.574;2023-05-10T12:35:45;100306.09;;;24.61;25.98
80335;BME280;69653;52.674;13.574;2023-05-10T12:38:34;100299.25;;;24.83;25.72
80335;BME280;69653;52.674;13.574;2023-05-10T12:41:01;100296.91;;;24.60;26.13
80335;BME280;69653;52.674;13.574;2023-05-10T12:43:27;100296.50;;;24.62;25.51
80335;BME280;69653;52.674;13.574;2023-05-10T12:45:53;100300.13;;;24.52;26.52
80335;BME280;69653;52.674;13.574;2023-05-10T12:48:18;100306.91;;;24.40;27.04
80335;BME280;69653;52.674;13.574;2023-05-10T12:50:44;100303.72;;;24.28;26.73
80335;BME280;69653;52.674;13.574;2023-05-10T12:53:09;100301.72;;;24.18;25.53
80335;BME280;69653;52.674;13.574;2023-05-10T12:55:34;100303.31;;;24.33;25.96
80335;BME280;69653;52.674;13.574;2023-05-10T12:58:00;100294.13;;;24.36;26.00
80335;BME280;69653;52.674;13.574;2023-05-10T13:00:25;100303.31;;;24.11;25.57
80335;BME280;69653;52.674;13.574;2023-05-10T13:02:50;100299.31;;;24.23;26.05
80335;BME280;69653;52.674;13.574;2023-05-10T13:05:16;100300.91;;;24.59;26.29
80335;BME280;69653;52.674;13.574;2023-05-10T13:07:41;100295.72;;;24.58;25.31
80335;BME280;69653;52.674;13.574;2023-05-10T13:10:09;100290.91;;;24.66;25.26
80335;BME280;69653;52.674;13.574;2023-05-10T13:12:34;100303.31;;;24.43;25.57
80335;BME280;69653;52.674;13.574;2023-05-10T13:14:59;100303.28;;;24.79;25.22
80335;BME280;69653;52.674;13.574;2023-05-10T13:17:25;100296.09;;;24.53;24.59
80335;BME280;69653;52.674;13.574;2023-05-10T13:19:51;100292.91;;;24.58;25.00
80335;BME280;69653;52.674;13.574;2023-05-10T13:22:16;100304.88;;;24.66;25.00
80335;BME280;69653;52.674;13.574;2023-05-10T13:24:41;100286.16;;;24.20;25.30
80335;BME280;69653;52.674;13.574;2023-05-10T13:27:07;100288.94;;;24.34;25.42
80335;BME280;69653;52.674;13.574;2023-05-10T13:29:32;100279.78;;;24.34;26.04
80335;BME280;69653;52.674;13.574;2023-05-10T13:31:58;100287.34;;;24.54;24.72
80335;BME280;69653;52.674;13.574;2023-05-10T13:34:23;100274.53;;;24.57;24.88